Time;durP1;ratioP1;P1;durP2;ratioP2;P2;SDS_P1;SDS_P2;PMS_P1;PMS_P2;Temp;Humidity;BMP_temperature;BMP_pressure;BME280_temperature;BME280_humidity;BME280_pressure;Samples;Min_cycle;Max_cycle;Signal;HPM_P1;HPM_P2
2024/04/18 00:00:01;;;;;;;0.30;0.20;;;11.00;99.90;;;;;;5514285;26;20279;-73
2024/04/18 00:02:27;;;;;;;0.60;0.60;;;11.00;99.90;;;;;;5513382;25;20596;-77
2024/04/18 00:04:53;;;;;;;0.30;0.20;;;11.00;99.90;;;;;;5511568;26;20488;-73
2024/04/18 00:07:18;;;;;;;0.30;0.30;;;11.00;99.90;;;;;;5513219;25;20311;-72
2024/04/18 00:09:44;;;;;;;0.30;0.20;;;11.00;99.90;;;;;;5513902;25;20287;-76
2024/04/18 00:12:10;;;;;;;1.00;0.67;;;11.00;99.90;;;;;;5513007;26;20228;-73
2024/04/18 00:14:35;;;;;;;0.30;0.20;;;11.10;99.90;;;;;;5510693;26;20287;-77
2024/04/18 00:17:01;;;;;;;0.53;0.53;;;11.00;99.90;;;;;;5512819;25;20291;-73
2024/04/18 00:19:26;;;;;;;0.40;0.40;;;11.00;99.90;;;;;;5513582;25;20236;-73
2024/04/18 00:21:52;;;;;;;0.30;0.20;;;11.00;99.90;;;;;;5513352;25;20755;-76
2024/04/18 00:24:18;;;;;;;1.23;1.23;;;11.00;99.90;;;;;;5511717;26;20262;-73
2024/04/18 00:26:43;;;;;;;0.30;0.20;;;11.00;99.90;;;;;;5513030;25;20216;-76
2024/04/18 00:29:09;;;;;;;0.30;0.20;;;11.00;99.90;;;;;;5513636;25;20323;-73
2024/04/18 00:31:34;;;;;;;0.47;0.47;;;11.00;99.90;;;;;;5513290;25;20250;-75
2024/04/18 00:34:00;;;;;;;0.50;0.50;;;11.00;99.90;;;;;;5512030;26;20247;-76
2024/04/18 00:36:26;;;;;;;0.40;0.40;;;11.00;99.90;;;;;;5511103;26;20254;-73
2024/04/18 00:38:51;;;;;;;0.30;0.20;;;11.00;99.90;;;;;;5512959;25;20964;-73
2024/04/18 00:41:18;;;;;;;0.30;0.20;;;11.10;99.90;;;;;;5512871;25;20215;-73
2024/04/18 00:43:44;;;;;;;0.30;0.20;;;11.10;99.90;;;;;;5504579;26;20368;-73
2024/04/18 00:46:10;;;;;;;0.30;0.20;;;11.00;99.90;;;;;;5476456;26;20636;-75
2024/04/18 00:48:35;;;;;;;4.70;0.82;;;11.10;99.90;;;;;;5508653;26;20616;-76
2024/04/18 00:51:02;;;;;;;0.30;0.20;;;11.10;99.90;;;;;;5513424;25;20220;-77
2024/04/18 00:53:29;;;;;;;0.30;0.20;;;11.10;99.90;;;;;;5510093;26;20294;-73
2024/04/18 00:55:55;;;;;;;2.80;1.75;;;11.00;99.90;;;;;;5512830;25;20696;-76
2024/04/18 00:58:22;;;;;;;0.77;0.77;;;11.00;99.90;;;;;;5510402;26;20286;-73
2024/04/18 01:00:49;;;;;;;0.60;0.60;;;11.10;99.90;;;;;;5511164;26;20954;-76
2024/04/18 01:03:15;;;;;;;0.30;0.20;;;11.10;99.90;;;;;;5511807;25;20307;-76
2024/04/18 01:05:41;;;;;;;0.50;0.50;;;11.10;99.90;;;;;;5510867;26;20732;-77
2024/04/18 01:08:07;;;;;;;0.40;0.40;;;11.10;99.90;;;;;;5512165;26;20244;-73
2024/04/18 01:10:33;;;;;;;0.47;0.47;;;11.10;99.90;;;;;;5512532;25;20307;-76
2024/04/18 01:13:00;;;;;;;0.30;0.20;;;11.10;99.90;;;;;;5511956;25;20232;-76
2024/04/18 01:15:26;;;;;;;0.30;0.20;;;11.10;99.90;;;;;;5512727;25;20677;-74
2024/04/18 01:17:53;;;;;;;0.30;0.20;;;11.10;99.90;;;;;;5511534;25;20227;-73
2024/04/18 01:20:21;;;;;;;0.40;0.30;;;11.10;99.90;;;;;;5512732;25;20258;-73
2024/04/18 01:22:47;;;;;;;0.30;0.20;;;11.20;99.90;;;;;;5510032;26;20571;-77
2024/04/18 01:25:12;;;;;;;0.30;0.20;;;11.10;99.90;;;;;;5514742;25;20275;-76
2024/04/18 01:27:38;;;;;;;2.70;0.63;;;11.10;99.90;;;;;;5514017;26;20476;-77
2024/04/18 01:30:04;;;;;;;0.30;0.20;;;11.10;99.90;;;;;;5514967;26;20272;-73
2024/04/18 01:32:34;;;;;;;1.05;1.05;;;11.20;99.90;;;;;;5515954;25;20460;-73
2024/04/18 01:35:01;;;;;;;0.30;0.20;;;11.20;99.90;;;;;;5514616;26;20573;-73
2024/04/18 01:37:26;;;;;;;0.50;0.50;;;11.20;99.90;;;;;;5513162;26;20269;-77
2024/04/18 01:39:52;;;;;;;0.30;0.30;;;11.20;99.90;;;;;;5515589;25;20224;-73
2024/04/18 01:42:17;;;;;;;0.40;0.40;;;11.20;99.90;;;;;;5514891;25;20383;-77
2024/04/18 01:44:47;;;;;;;0.30;0.20;;;11.20;99.90;;;;;;5513883;26;20319;-76
2024/04/18 01:47:13;;;;;;;0.47;0.40;;;11.20;99.90;;;;;;5515250;25;20343;-73
2024/04/18 01:49:39;;;;;;;0.40;0.40;;;11.20;99.90;;;;;;5513795;26;20232;-76
2024/04/18 01:52:06;;;;;;;0.33;0.30;;;11.20;99.90;;;;;;5507821;26;20271;-73
2024/04/18 01:54:35;;;;;;;0.30;0.30;;;11.20;99.90;;;;;;5479051;26;20441;-77
2024/04/18 01:57:01;;;;;;;0.30;0.20;;;11.10;99.90;;;;;;5487106;26;20224;-77
2024/04/18 01:59:26;;;;;;;0.30;0.20;;;11.10;99.90;;;;;;5513882;26;20240;-77
2024/04/18 02:01:55;;;;;;;0.50;0.50;;;11.00;99.90;;;;;;5514650;25;20278;-73
2024/04/18 02:04:20;;;;;;;0.30;0.20;;;11.00;99.90;;;;;;5515554;25;20315;-77
2024/04/18 02:06:49;;;;;;;0.30;0.20;;;10.90;99.90;;;;;;5514421;25;20717;-74
2024/04/18 02:09:16;;;;;;;0.30;0.20;;;10.80;99.90;;;;;;5515286;25;20236;-73
2024/04/18 02:11:42;;;;;;;0.30;0.20;;;10.80;99.90;;;;;;5512547;26;20219;-77
2024/04/18 02:14:07;;;;;;;0.30;0.20;;;10.70;99.90;;;;;;5513717;26;20282;-77
2024/04/18 02:16:33;;;;;;;0.30;0.20;;;10.70;99.90;;;;;;5513348;26;20472;-73
2024/04/18 02:18:59;;;;;;;0.30;0.20;;;10.60;99.90;;;;;;5513414;26;20335;-73
2024/04/18 02:21:24;;;;;;;0.30;0.27;;;10.50;99.90;;;;;;5513842;26;20227;-77
2024/04/18 02:23:51;;;;;;;1.53;0.80;;;10.50;99.90;;;;;;5514755;25;20343;-73
2024/04/18 02:26:17;;;;;;;0.30;0.20;;;10.40;99.90;;;;;;5513483;26;20219;-73
2024/04/18 02:28:42;;;;;;;2.50;2.40;;;10.40;99.90;;;;;;5514841;25;20236;-73
2024/04/18 02:31:08;;;;;;;0.30;0.20;;;10.40;99.90;;;;;;5515468;25;20216;-73
2024/04/18 02:33:34;;;;;;;0.30;0.20;;;10.30;99.90;;;;;;5515065;25;20650;-73
2024/04/18 02:35:59;;;;;;;0.30;0.20;;;10.30;99.90;;;;;;5514328;25;20215;-74
2024/04/18 02:38:25;;;;;;;0.30;0.20;;;10.30;99.90;;;;;;5506829;26;20270;-73
2024/04/18 02:40:59;;;;;;;0.73;0.50;;;10.20;99.90;;;;;;5478048;26;20765;-74
2024/04/18 02:43:25;;;;;;;0.30;0.30;;;10.20;99.90;;;;;;5506025;26;20239;-73
2024/04/18 02:45:51;;;;;;;0.30;0.20;;;10.20;99.90;;;;;;5514308;26;20262;-74
2024/04/18 02:48:17;;;;;;;1.43;1.33;;;10.20;99.90;;;;;;5514381;25;20286;-77
2024/04/18 02:50:42;;;;;;;1.40;1.30;;;10.30;99.90;;;;;;5514615;25;20765;-77
2024/04/18 02:53:08;;;;;;;0.40;0.30;;;10.40;99.90;;;;;;5514865;25;20646;-74
2024/04/18 02:55:34;;;;;;;0.30;0.20;;;10.50;99.90;;;;;;5514113;25;20934;-77
2024/04/18 02:58:00;;;;;;;0.70;0.70;;;10.60;99.90;;;;;;5488800;26;20237;-73
2024/04/18 03:00:26;;;;;;;0.30;0.23;;;10.70;99.90;;;;;;5477818;26;20217;-76
2024/04/18 03:02:51;;;;;;;0.40;0.20;;;10.80;99.90;;;;;;5499096;26;20287;-77
2024/04/18 03:05:17;;;;;;;0.30;0.20;;;10.90;99.90;;;;;;5514438;25;20275;-77
2024/04/18 03:07:43;;;;;;;0.60;0.60;;;11.10;99.90;;;;;;5512174;26;20251;-77
2024/04/18 03:10:08;;;;;;;0.30;0.20;;;11.10;99.90;;;;;;5513928;25;20443;-73
2024/04/18 03:12:34;;;;;;;0.50;0.50;;;11.20;99.90;;;;;;5506557;26;20295;-77
2024/04/18 03:15:00;;;;;;;0.30;0.20;;;11.20;99.90;;;;;;5477637;26;20556;-77
2024/04/18 03:17:25;;;;;;;0.30;0.30;;;11.30;99.90;;;;;;5492059;26;21192;-77
2024/04/18 03:19:51;;;;;;;0.30;0.20;;;11.30;99.90;;;;;;5514584;26;20759;-73
2024/04/18 03:22:16;;;;;;;0.30;0.20;;;11.30;99.90;;;;;;5514226;25;20274;-77
2024/04/18 03:24:42;;;;;;;0.30;0.30;;;11.40;99.90;;;;;;5512743;26;20228;-77
2024/04/18 03:27:08;;;;;;;1.73;0.87;;;11.40;99.90;;;;;;5511946;26;20295;-73
2024/04/18 03:29:33;;;;;;;0.30;0.20;;;11.50;99.90;;;;;;5514616;25;20232;-77
2024/04/18 03:32:02;;;;;;;0.30;0.20;;;11.50;99.90;;;;;;5513754;25;20266;-79
2024/04/18 03:34:28;;;;;;;0.30;0.20;;;11.50;99.90;;;;;;5514056;25;20228;-77
2024/04/18 03:36:54;;;;;;;0.30;0.20;;;11.50;99.90;;;;;;5505976;26;20737;-74
2024/04/18 03:39:20;;;;;;;1.43;1.33;;;11.60;99.90;;;;;;5475095;26;20237;-73
2024/04/18 03:41:49;;;;;;;0.30;0.20;;;11.60;99.90;;;;;;5481302;26;20244;-77
2024/04/18 03:44:15;;;;;;;0.30;0.30;;;11.50;99.90;;;;;;5511220;26;21084;-73
2024/04/18 03:46:41;;;;;;;0.30;0.20;;;11.60;99.90;;;;;;5510788;26;20238;-73
2024/04/18 03:49:09;;;;;;;0.40;0.40;;;11.60;99.90;;;;;;5512145;26;20239;-78
2024/04/18 03:51:35;;;;;;;0.30;0.20;;;11.50;99.90;;;;;;5512026;25;20219;-73
2024/04/18 03:54:01;;;;;;;0.30;0.20;;;11.60;99.90;;;;;;5511641;26;20236;-77
2024/04/18 03:56:27;;;;;;;0.50;0.50;;;11.60;99.90;;;;;;5511825;26;20227;-73
2024/04/18 03:58:54;;;;;;;0.53;0.53;;;11.60;99.90;;;;;;5512278;25;20239;-73
2024/04/18 04:01:20;;;;;;;0.30;0.20;;;11.60;99.90;;;;;;5511546;26;20662;-73
2024/04/18 04:03:46;;;;;;;2.23;2.03;;;11.70;99.90;;;;;;5505306;26;20281;-73
2024/04/18 04:06:12;;;;;;;0.30;0.30;;;11.70;99.90;;;;;;5474761;26;20935;-73
2024/04/18 04:08:37;;;;;;;0.30;0.20;;;11.70;99.90;;;;;;5508656;26;20236;-73
2024/04/18 04:11:03;;;;;;;0.40;0.40;;;11.70;99.90;;;;;;5513319;25;20223;-73
2024/04/18 04:13:29;;;;;;;0.30;0.20;;;11.70;99.90;;;;;;5513090;25;20919;-77
2024/04/18 04:15:56;;;;;;;0.30;0.20;;;11.70;99.90;;;;;;5511332;26;20239;-73
2024/04/18 04:18:25;;;;;;;0.43;0.43;;;11.80;99.90;;;;;;5512711;26;20262;-73
2024/04/18 04:20:51;;;;;;;0.30;0.30;;;11.80;99.90;;;;;;5512915;26;21060;-73
2024/04/18 04:23:17;;;;;;;0.40;0.30;;;11.80;99.90;;;;;;5512476;25;20282;-77
2024/04/18 04:25:43;;;;;;;2.30;1.70;;;11.80;99.90;;;;;;5509143;26;20452;-76
2024/04/18 04:28:08;;;;;;;0.57;0.57;;;11.80;99.90;;;;;;5504106;26;20296;-78
2024/04/18 04:30:34;;;;;;;0.30;0.20;;;11.80;99.90;;;;;;5475214;26;20931;-73
2024/04/18 04:33:00;;;;;;;0.30;0.20;;;11.80;99.90;;;;;;5484804;26;20329;-80
2024/04/18 04:35:25;;;;;;;0.80;0.80;;;11.80;99.90;;;;;;5501476;26;20615;-75
2024/04/18 04:37:51;;;;;;;0.37;0.37;;;11.80;99.90;;;;;;5503673;26;20666;-79
2024/04/18 04:40:16;;;;;;;0.60;0.60;;;11.70;99.90;;;;;;5476014;26;20225;-73
2024/04/18 04:42:42;;;;;;;0.30;0.30;;;11.70;99.90;;;;;;5488331;26;20237;-77
2024/04/18 04:45:08;;;;;;;1.43;1.03;;;11.70;99.90;;;;;;5476562;26;20229;-77
2024/04/18 04:47:33;;;;;;;0.50;0.50;;;11.70;99.90;;;;;;5483151;26;20229;-73
2024/04/18 04:49:59;;;;;;;0.30;0.20;;;11.70;99.90;;;;;;5473808;26;20275;-75
2024/04/18 04:52:25;;;;;;;0.30;0.20;;;11.70;99.90;;;;;;5480734;26;20267;-79
2024/04/18 04:54:50;;;;;;;0.60;0.60;;;11.80;99.90;;;;;;5494986;26;20296;-79
2024/04/18 04:57:16;;;;;;;4.43;2.00;;;11.80;99.90;;;;;;5484848;26;20239;-75
2024/04/18 04:59:43;;;;;;;0.30;0.20;;;11.80;99.90;;;;;;5502941;26;20328;-75
2024/04/18 05:02:08;;;;;;;0.30;0.30;;;11.70;99.90;;;;;;5497525;25;20239;-78
2024/04/18 05:04:34;;;;;;;0.80;0.80;;;11.70;99.90;;;;;;5513821;26;20592;-80
2024/04/18 05:07:00;;;;;;;0.93;0.93;;;11.70;99.90;;;;;;5499836;26;20913;-75
2024/04/18 05:09:26;;;;;;;4.10;1.63;;;11.70;99.90;;;;;;5508551;26;20240;-76
2024/04/18 05:11:52;;;;;;;1.60;1.50;;;11.70;99.90;;;;;;5502922;26;20235;-74
2024/04/18 05:14:17;;;;;;;0.47;0.47;;;11.70;99.90;;;;;;5509781;26;20239;-75
2024/04/18 05:16:43;;;;;;;1.33;1.23;;;11.70;99.90;;;;;;5501003;26;20241;-75
2024/04/18 05:19:09;;;;;;;0.50;0.50;;;11.70;99.90;;;;;;5482538;25;20287;-75
2024/04/18 05:21:35;;;;;;;0.30;0.20;;;11.70;99.90;;;;;;5488510;26;20282;-75
2024/04/18 05:24:01;;;;;;;2.42;1.13;;;11.60;99.90;;;;;;5503232;26;20709;-78
2024/04/18 05:26:32;;;;;;;1.13;0.87;;;11.70;99.90;;;;;;5509556;26;20231;-79
2024/04/18 05:31:49;;;;;;;0.30;0.20;;;11.30;99.90;;;;;;5475761;26;20378;-79
2024/04/18 05:34:15;;;;;;;0.30;0.20;;;11.10;99.90;;;;;;5504899;26;20258;-75
2024/04/18 05:36:40;;;;;;;0.50;0.50;;;11.00;99.90;;;;;;5474994;26;20429;-79
2024/04/18 05:39:06;;;;;;;3.03;1.07;;;10.80;99.90;;;;;;5474310;26;20232;-75
2024/04/18 05:41:32;;;;;;;0.30;0.30;;;10.70;99.90;;;;;;5473140;26;20921;-75
2024/04/18 05:43:58;;;;;;;1.27;1.27;;;10.60;99.90;;;;;;5504456;26;20567;-75
2024/04/18 05:46:24;;;;;;;0.57;0.57;;;10.60;99.90;;;;;;5512781;26;20255;-75
2024/04/18 05:48:50;;;;;;;0.30;0.20;;;10.50;99.90;;;;;;5494513;25;20598;-75
2024/04/18 05:51:15;;;;;;;0.30;0.20;;;10.50;99.90;;;;;;5509354;25;20875;-75
2024/04/18 05:53:41;;;;;;;0.50;0.50;;;10.40;99.90;;;;;;5504926;26;20274;-75
2024/04/18 05:56:07;;;;;;;0.40;0.40;;;10.30;99.90;;;;;;5479552;25;20282;-78
2024/04/18 05:58:33;;;;;;;0.90;0.90;;;10.30;99.90;;;;;;5486258;26;20300;-78
2024/04/18 06:00:58;;;;;;;0.40;0.30;;;10.30;99.90;;;;;;5503950;26;20243;-75
2024/04/18 06:03:25;;;;;;;0.30;0.20;;;10.30;99.90;;;;;;5503913;26;20515;-75
2024/04/18 06:05:56;;;;;;;0.30;0.20;;;10.30;99.90;;;;;;5478419;25;20446;-78
2024/04/18 06:08:22;;;;;;;0.30;0.20;;;10.30;99.90;;;;;;5488158;26;20244;-74
2024/04/18 06:10:48;;;;;;;0.30;0.30;;;10.30;99.90;;;;;;5479578;26;21131;-79
2024/04/18 06:13:14;;;;;;;0.50;0.50;;;10.30;99.90;;;;;;5497780;25;20232;-79
2024/04/18 06:15:43;;;;;;;0.82;0.82;;;10.30;99.90;;;;;;5487511;26;20898;-74
2024/04/18 06:18:09;;;;;;;0.35;0.35;;;10.30;99.90;;;;;;5484603;26;21056;-78
2024/04/18 06:20:43;;;;;;;0.77;0.77;;;10.30;99.90;;;;;;5481786;26;20232;-75
2024/04/18 06:23:09;;;;;;;0.30;0.20;;;10.30;99.90;;;;;;5487677;26;20359;-74
2024/04/18 06:25:36;;;;;;;1.15;1.05;;;10.30;99.90;;;;;;5485539;25;20527;-78
2024/04/18 06:28:03;;;;;;;0.30;0.20;;;10.30;99.90;;;;;;5482200;26;20997;-74
2024/04/18 06:30:29;;;;;;;0.65;0.65;;;10.30;99.90;;;;;;5479941;26;20304;-74
2024/04/18 06:32:54;;;;;;;1.00;0.63;;;10.20;99.90;;;;;;5486486;25;20233;-75
2024/04/18 06:35:20;;;;;;;2.10;2.00;;;10.30;99.90;;;;;;5492596;25;20666;-77
2024/04/18 06:37:47;;;;;;;0.63;0.50;;;10.20;99.90;;;;;;5496031;25;20462;-75
2024/04/18 06:40:13;;;;;;;2.70;1.40;;;10.30;99.90;;;;;;5487612;26;20239;-78
2024/04/18 06:42:39;;;;;;;0.50;0.50;;;10.30;99.90;;;;;;5506722;26;20235;-75
2024/04/18 06:45:05;;;;;;;0.30;0.20;;;10.30;99.90;;;;;;5490125;25;20333;-74
2024/04/18 06:47:31;;;;;;;0.30;0.20;;;10.30;99.90;;;;;;5494773;26;20240;-78
2024/04/18 06:49:57;;;;;;;0.30;0.20;;;10.30;99.90;;;;;;5485483;26;20336;-77
2024/04/18 06:52:22;;;;;;;0.40;0.40;;;10.30;99.90;;;;;;5483443;26;20444;-74
2024/04/18 06:54:48;;;;;;;0.40;0.40;;;10.30;99.90;;;;;;5484715;26;20338;-78
2024/04/18 06:57:14;;;;;;;0.70;0.70;;;10.30;99.90;;;;;;5476434;26;20354;-78
2024/04/18 06:59:39;;;;;;;0.30;0.20;;;10.30;99.90;;;;;;5500785;26;20240;-78
2024/04/18 07:02:05;;;;;;;0.30;0.20;;;10.30;99.90;;;;;;5504893;25;20322;-79
2024/04/18 07:04:31;;;;;;;1.43;0.97;;;10.40;99.90;;;;;;5500419;25;20298;-74
2024/04/18 07:06:58;;;;;;;0.30;0.30;;;10.60;99.90;;;;;;5481275;26;20453;-75
2024/04/18 07:09:24;;;;;;;0.55;0.55;;;11.00;99.90;;;;;;5478705;26;20240;-78
2024/04/18 07:11:50;;;;;;;0.57;0.57;;;11.30;99.90;;;;;;5487027;25;20341;-78
2024/04/18 07:14:16;;;;;;;0.30;0.20;;;11.50;99.90;;;;;;5477035;26;20279;-78
2024/04/18 07:16:41;;;;;;;0.47;0.47;;;11.30;99.90;;;;;;5488442;25;20316;-79
2024/04/18 07:19:07;;;;;;;0.30;0.20;;;11.20;99.90;;;;;;5498163;25;20291;-76
2024/04/18 07:21:33;;;;;;;1.27;1.17;;;11.10;99.90;;;;;;5483013;26;20426;-76
2024/04/18 07:23:58;;;;;;;0.30;0.20;;;10.90;99.90;;;;;;5480941;26;21092;-80
2024/04/18 07:26:24;;;;;;;1.17;1.17;;;10.90;99.90;;;;;;5497891;26;20235;-75
2024/04/18 07:28:50;;;;;;;1.90;1.80;;;11.20;99.90;;;;;;5490737;26;20329;-79
2024/04/18 07:31:15;;;;;;;0.30;0.20;;;11.50;99.90;;;;;;5472784;26;20271;-80
2024/04/18 07:33:41;;;;;;;0.63;0.50;;;11.70;99.90;;;;;;5469851;26;20804;-76
2024/04/18 07:36:06;;;;;;;0.50;0.50;;;11.80;99.90;;;;;;5486441;26;20296;-80
2024/04/18 07:38:32;;;;;;;0.37;0.37;;;12.00;99.90;;;;;;5500118;26;20247;-80
2024/04/18 07:40:58;;;;;;;0.93;0.93;;;12.20;99.90;;;;;;5507090;26;20343;-77
2024/04/18 07:43:24;;;;;;;0.30;0.30;;;12.40;99.90;;;;;;5492780;26;20248;-76
2024/04/18 07:45:50;;;;;;;0.30;0.20;;;12.50;99.90;;;;;;5503546;26;20270;-77
2024/04/18 07:48:15;;;;;;;2.03;0.93;;;12.60;99.90;;;;;;5481206;26;20577;-77
2024/04/18 07:50:41;;;;;;;0.40;0.40;;;12.40;99.90;;;;;;5480425;25;20266;-77
2024/04/18 07:53:07;;;;;;;0.93;0.93;;;12.20;99.90;;;;;;5485355;26;20507;-78
2024/04/18 07:55:32;;;;;;;0.43;0.43;;;12.00;99.90;;;;;;5480825;26;20787;-77
2024/04/18 07:57:58;;;;;;;0.30;0.20;;;11.90;99.90;;;;;;5496543;26;20239;-78
2024/04/18 08:00:24;;;;;;;0.30;0.20;;;11.80;99.90;;;;;;5509184;26;20235;-79
2024/04/18 08:02:50;;;;;;;0.30;0.20;;;11.80;99.90;;;;;;5497816;25;20920;-79
2024/04/18 08:05:15;;;;;;;0.63;0.63;;;11.70;99.90;;;;;;5491422;26;20236;-77
2024/04/18 08:07:41;;;;;;;2.33;2.13;;;11.70;99.90;;;;;;5498665;26;20589;-79
2024/04/18 08:10:07;;;;;;;0.50;0.50;;;11.70;99.90;;;;;;5499908;26;20653;-79
2024/04/18 08:12:33;;;;;;;0.30;0.20;;;11.70;99.90;;;;;;5476875;26;20370;-79
2024/04/18 08:14:59;;;;;;;1.83;1.03;;;11.70;99.90;;;;;;5498543;26;20521;-77
2024/04/18 08:17:26;;;;;;;0.30;0.20;;;11.80;99.90;;;;;;5473184;26;20274;-79
2024/04/18 08:19:52;;;;;;;0.77;0.30;;;11.80;99.90;;;;;;5491847;26;20232;-77
2024/04/18 08:22:18;;;;;;;0.63;0.60;;;11.80;99.90;;;;;;5489381;25;21066;-78
2024/04/18 08:24:44;;;;;;;0.57;0.57;;;11.90;99.90;;;;;;5459897;26;20325;-77
2024/04/18 08:27:10;;;;;;;0.30;0.20;;;11.90;99.90;;;;;;5468670;26;20228;-77
2024/04/18 08:29:36;;;;;;;0.30;0.20;;;11.90;99.90;;;;;;5498946;25;20281;-79
2024/04/18 08:32:02;;;;;;;0.30;0.30;;;11.90;99.90;;;;;;5479588;26;20307;-75
2024/04/18 08:34:28;;;;;;;0.30;0.20;;;12.00;99.90;;;;;;5479871;26;20236;-76
2024/04/18 08:36:53;;;;;;;0.40;0.40;;;12.00;99.90;;;;;;5491199;25;20220;-76
2024/04/18 08:39:19;;;;;;;0.30;0.20;;;12.00;99.90;;;;;;5486794;26;21013;-76
2024/04/18 08:41:45;;;;;;;0.30;0.20;;;12.00;99.90;;;;;;5504702;26;20340;-80
2024/04/18 08:44:12;;;;;;;0.30;0.30;;;12.10;99.90;;;;;;5485561;25;20274;-74
2024/04/18 08:46:38;;;;;;;0.40;0.20;;;12.10;99.90;;;;;;5489096;26;21199;-74
2024/04/18 08:49:10;;;;;;;0.30;0.20;;;12.10;99.90;;;;;;5485667;26;20331;-78
2024/04/18 08:51:40;;;;;;;0.30;0.20;;;12.10;99.90;;;;;;5481054;26;20341;-79
2024/04/18 08:54:06;;;;;;;0.45;0.40;;;12.10;99.90;;;;;;5473800;26;20306;-74
2024/04/18 08:56:33;;;;;;;0.30;0.20;;;12.10;99.90;;;;;;5481732;25;21015;-79
2024/04/18 08:58:59;;;;;;;2.58;2.28;;;12.10;99.90;;;;;;5487255;26;20458;-79
2024/04/18 09:01:25;;;;;;;0.63;0.63;;;12.10;99.90;;;;;;5481999;26;20571;-79
2024/04/18 09:03:56;;;;;;;0.30;0.20;;;12.10;99.90;;;;;;5484296;26;20549;-79
2024/04/18 09:06:22;;;;;;;0.77;0.77;;;12.10;99.90;;;;;;5479266;26;20453;-78
2024/04/18 09:08:55;;;;;;;0.30;0.20;;;12.20;99.90;;;;;;5471294;26;20562;-74
2024/04/18 09:11:22;;;;;;;1.53;1.43;;;12.30;99.90;;;;;;5471326;26;20929;-74
2024/04/18 09:13:47;;;;;;;0.30;0.20;;;12.30;99.90;;;;;;5496239;26;20963;-74
2024/04/18 09:16:14;;;;;;;0.50;0.50;;;12.30;99.90;;;;;;5492322;25;20752;-78
2024/04/18 09:18:40;;;;;;;1.95;1.85;;;12.30;99.90;;;;;;5485193;26;20609;-74
2024/04/18 09:21:12;;;;;;;0.50;0.50;;;12.30;99.90;;;;;;5478578;26;20329;-79
2024/04/18 09:23:39;;;;;;;0.67;0.67;;;12.20;99.90;;;;;;5480633;26;20922;-74
2024/04/18 09:26:05;;;;;;;0.88;0.88;;;12.20;99.90;;;;;;5482019;25;20492;-74
2024/04/18 09:28:34;;;;;;;0.30;0.20;;;12.00;99.90;;;;;;5460666;26;20628;-74
2024/04/18 09:31:01;;;;;;;0.83;0.77;;;12.00;99.90;;;;;;5478870;26;20453;-76
2024/04/18 09:33:27;;;;;;;0.30;0.20;;;11.90;99.90;;;;;;5484895;26;20465;-78
2024/04/18 09:36:00;;;;;;;0.30;0.20;;;11.80;99.90;;;;;;5478894;26;20237;-80
2024/04/18 09:38:31;;;;;;;0.30;0.30;;;11.70;99.90;;;;;;5472338;26;20241;-76
2024/04/18 09:41:23;;;;;;;0.50;0.50;;;11.70;99.90;;;;;;5473739;26;20816;-80
2024/04/18 09:44:15;;;;;;;2.55;2.42;;;11.80;99.90;;;;;;5502327;25;20287;-81
2024/04/18 09:46:45;;;;;;;3.05;1.95;;;11.80;99.90;;;;;;5481180;26;20229;-76
2024/04/18 09:49:11;;;;;;;0.30;0.20;;;11.80;99.90;;;;;;5467805;26;20309;-74
2024/04/18 09:51:39;;;;;;;0.47;0.47;;;11.80;99.90;;;;;;5475938;26;20319;-75
2024/04/18 09:54:05;;;;;;;0.82;0.82;;;11.80;99.90;;;;;;5492473;26;21179;-75
2024/04/18 09:56:33;;;;;;;0.30;0.20;;;11.80;99.90;;;;;;5470117;26;20228;-79
2024/04/18 09:59:00;;;;;;;0.30;0.20;;;11.80;99.90;;;;;;5470123;26;20450;-77
2024/04/18 10:01:26;;;;;;;0.30;0.20;;;11.90;99.90;;;;;;5481670;26;20308;-78
2024/04/18 10:03:51;;;;;;;0.40;0.40;;;11.90;99.90;;;;;;5501000;26;20251;-76
2024/04/18 10:06:20;;;;;;;0.30;0.30;;;11.80;99.90;;;;;;5470756;26;20912;-76
2024/04/18 10:08:50;;;;;;;2.25;1.10;;;11.80;99.90;;;;;;5468926;26;20965;-81
2024/04/18 10:11:18;;;;;;;0.52;0.50;;;11.90;99.90;;;;;;5479159;26;20235;-80
2024/04/18 10:13:44;;;;;;;0.30;0.20;;;11.90;99.90;;;;;;5471414;25;20922;-80
2024/04/18 10:16:10;;;;;;;1.53;1.50;;;12.00;99.90;;;;;;5488363;26;20225;-74
2024/04/18 10:18:37;;;;;;;0.30;0.20;;;12.00;99.90;;;;;;5475669;26;20284;-76
2024/04/18 10:21:13;;;;;;;2.73;2.53;;;12.00;99.90;;;;;;5473961;26;20244;-78
2024/04/18 10:24:05;;;;;;;0.88;0.73;;;12.00;99.90;;;;;;5472512;26;20568;-78
2024/04/18 10:26:34;;;;;;;0.30;0.20;;;12.10;99.90;;;;;;5471743;26;20235;-78
2024/04/18 10:29:00;;;;;;;0.30;0.20;;;12.10;99.90;;;;;;5482558;26;20275;-78
2024/04/18 10:31:29;;;;;;;0.30;0.30;;;12.20;99.90;;;;;;5473912;26;20236;-75
2024/04/18 10:33:56;;;;;;;0.45;0.45;;;12.20;99.90;;;;;;5476440;26;20941;-79
2024/04/18 10:36:24;;;;;;;1.13;1.10;;;12.30;99.90;;;;;;5476653;26;20570;-74
2024/04/18 10:38:50;;;;;;;0.30;0.20;;;12.30;99.90;;;;;;5481568;26;20251;-78
2024/04/18 10:41:20;;;;;;;0.77;0.77;;;12.30;99.90;;;;;;5482004;25;20934;-75
2024/04/18 10:43:46;;;;;;;0.30;0.30;;;12.40;99.90;;;;;;5475401;26;20263;-81
2024/04/18 10:46:13;;;;;;;1.07;0.90;;;12.40;99.90;;;;;;5485079;26;20603;-75
2024/04/18 10:48:42;;;;;;;0.30;0.20;;;12.50;99.90;;;;;;5483178;26;20735;-78
2024/04/18 10:51:08;;;;;;;2.35;0.73;;;12.60;99.90;;;;;;5501464;26;20501;-74
2024/04/18 10:53:35;;;;;;;0.30;0.20;;;12.70;99.90;;;;;;5480617;26;20245;-78
2024/04/18 10:56:01;;;;;;;0.30;0.30;;;12.80;99.90;;;;;;5472311;26;20232;-79
2024/04/18 10:58:27;;;;;;;0.50;0.50;;;12.80;99.90;;;;;;5476212;26;21073;-79
2024/04/18 11:01:00;;;;;;;0.30;0.20;;;12.90;99.90;;;;;;5480011;26;20441;-75
2024/04/18 11:03:27;;;;;;;0.40;0.30;;;13.10;99.90;;;;;;5479121;26;20621;-76
2024/04/18 11:06:00;;;;;;;10.60;1.57;;;13.20;99.90;;;;;;5482074;26;20466;-75
2024/04/18 11:08:27;;;;;;;0.40;0.40;;;13.40;99.90;;;;;;5479846;26;20449;-78
2024/04/18 11:10:53;;;;;;;0.40;0.30;;;13.60;99.90;;;;;;5489826;25;20441;-78
2024/04/18 11:13:19;;;;;;;0.93;0.80;;;13.60;99.90;;;;;;5483108;26;20967;-75
2024/04/18 11:15:47;;;;;;;0.40;0.40;;;13.60;99.90;;;;;;5487404;26;20266;-75
2024/04/18 11:18:12;;;;;;;0.67;0.67;;;13.50;99.90;;;;;;5485817;26;20500;-75
2024/04/18 11:20:38;;;;;;;1.13;1.13;;;13.30;99.90;;;;;;5484306;26;20851;-78
2024/04/18 11:23:05;;;;;;;1.43;1.33;;;13.20;99.90;;;;;;5472736;26;20465;-75
2024/04/18 11:25:31;;;;;;;0.60;0.40;;;13.20;99.90;;;;;;5489141;25;20231;-75
2024/04/18 11:27:58;;;;;;;0.30;0.20;;;13.30;99.90;;;;;;5479830;25;20508;-75
2024/04/18 11:30:25;;;;;;;0.30;0.20;;;13.30;99.90;;;;;;5481598;25;20717;-78
2024/04/18 11:32:58;;;;;;;0.40;0.40;;;13.40;99.90;;;;;;5479751;25;20516;-75
2024/04/18 11:35:25;;;;;;;0.70;0.70;;;13.50;99.90;;;;;;5489982;26;20503;-78
2024/04/18 11:37:51;;;;;;;0.30;0.20;;;13.60;99.90;;;;;;5476501;25;21208;-75
2024/04/18 11:40:17;;;;;;;0.30;0.20;;;13.70;99.90;;;;;;5476477;25;20540;-75
2024/04/18 11:42:43;;;;;;;0.67;0.67;;;13.80;99.90;;;;;;5481557;25;20259;-79
2024/04/18 11:45:09;;;;;;;0.40;0.20;;;14.00;99.90;;;;;;5481223;25;20937;-78
2024/04/18 11:47:39;;;;;;;0.90;0.63;;;14.10;99.90;;;;;;5485995;25;20283;-78
2024/04/18 11:50:06;;;;;;;0.30;0.20;;;14.20;99.90;;;;;;5485126;25;20453;-79
2024/04/18 11:52:32;;;;;;;0.30;0.20;;;14.30;99.90;;;;;;5472675;25;20473;-75
2024/04/18 11:54:58;;;;;;;0.30;0.20;;;14.30;99.90;;;;;;5477824;25;21351;-75
2024/04/18 11:57:24;;;;;;;0.70;0.70;;;14.20;99.90;;;;;;5486778;26;20477;-76
2024/04/18 11:59:50;;;;;;;2.00;1.63;;;14.20;99.90;;;;;;5477529;25;20466;-75
2024/04/18 12:02:15;;;;;;;0.40;0.30;;;14.20;99.90;;;;;;5485285;25;20224;-79
2024/04/18 12:04:41;;;;;;;0.30;0.20;;;14.20;99.90;;;;;;5488168;25;20451;-75
2024/04/18 12:07:06;;;;;;;0.30;0.20;;;14.20;99.90;;;;;;5495674;25;20564;-75
2024/04/18 12:09:36;;;;;;;0.30;0.20;;;14.30;99.90;;;;;;5505898;26;20250;-78
2024/04/18 12:12:03;;;;;;;0.60;0.50;;;14.20;99.90;;;;;;5490310;26;20239;-78
2024/04/18 12:14:29;;;;;;;0.30;0.20;;;14.20;99.90;;;;;;5473552;26;20442;-75
2024/04/18 12:16:55;;;;;;;0.87;0.87;;;14.10;99.90;;;;;;5477919;26;20472;-75
2024/04/18 12:19:21;;;;;;;0.30;0.20;;;13.90;99.90;;;;;;5472887;26;20973;-78
2024/04/18 12:21:47;;;;;;;0.30;0.30;;;13.70;99.90;;;;;;5484787;26;20508;-75
2024/04/18 12:24:13;;;;;;;0.40;0.30;;;13.60;99.90;;;;;;5488530;26;20240;-75
2024/04/18 12:26:39;;;;;;;0.30;0.20;;;13.40;99.90;;;;;;5492077;26;20266;-78
2024/04/18 12:29:05;;;;;;;0.40;0.40;;;13.40;99.90;;;;;;5477565;26;20569;-75
2024/04/18 12:31:30;;;;;;;0.47;0.47;;;13.40;99.90;;;;;;5478306;26;21041;-75
2024/04/18 12:33:56;;;;;;;0.30;0.20;;;13.40;99.90;;;;;;5467583;26;20469;-74
2024/04/18 12:36:22;;;;;;;0.30;0.20;;;13.40;99.90;;;;;;5471542;26;20279;-75
2024/04/18 12:38:47;;;;;;;0.30;0.20;;;13.40;99.90;;;;;;5472598;26;20244;-75
2024/04/18 12:41:13;;;;;;;0.30;0.20;;;13.40;99.90;;;;;;5486763;26;20266;-75
2024/04/18 12:43:39;;;;;;;0.30;0.30;;;13.40;99.90;;;;;;5480522;26;20240;-78
2024/04/18 12:46:05;;;;;;;0.30;0.20;;;13.40;99.90;;;;;;5481508;26;20228;-77